sensor_id;sensor_type;location;lat;lon;timestamp;P1;durP1;ratioP1;P2;durP2;ratioP2
5209;SDS011;2624;48.048;11.706;2024-03-17T00:03:00;4.40;;;1.90;;
5209;SDS011;2624;48.048;11.706;2024-03-17T00:08:02;1.40;;;1.30;;
5209;SDS011;2624;48.048;11.706;2024-03-17T00:13:07;1.70;;;1.60;;
5209;SDS011;2624;48.048;11.706;2024-03-17T00:18:09;1.63;;;1.53;;
5209;SDS011;2624;48.048;11.706;2024-03-17T00:23:11;1.43;;;1.33;;
5209;SDS011;2624;48.048;11.706;2024-03-17T00:28:14;1.83;;;1.73;;
5209;SDS011;2624;48.048;11.706;2024-03-17T00:33:16;1.40;;;1.30;;
5209;SDS011;2624;48.048;11.706;2024-03-17T00:38:19;8.63;;;3.60;;
5209;SDS011;2624;48.048;11.706;2024-03-17T00:43:22;4.20;;;2.53;;
5209;SDS011;2624;48.048;11.706;2024-03-17T00:48:24;1.30;;;1.30;;
5209;SDS011;2624;48.048;11.706;2024-03-17T00:53:26;2.03;;;1.90;;
5209;SDS011;2624;48.048;11.706;2024-03-17T00:58:30;3.80;;;1.50;;
5209;SDS011;2624;48.048;11.706;2024-03-17T01:03:32;1.40;;;1.40;;
5209;SDS011;2624;48.048;11.706;2024-03-17T01:08:34;1.30;;;1.30;;
5209;SDS011;2624;48.048;11.706;2024-03-17T01:13:37;0.90;;;0.90;;
5209;SDS011;2624;48.048;11.706;2024-03-17T01:18:41;1.30;;;1.20;;
5209;SDS011;2624;48.048;11.706;2024-03-17T01:23:45;1.53;;;1.43;;
5209;SDS011;2624;48.048;11.706;2024-03-17T01:28:50;1.47;;;1.37;;
5209;SDS011;2624;48.048;11.706;2024-03-17T01:33:52;1.30;;;1.30;;
5209;SDS011;2624;48.048;11.706;2024-03-17T01:38:54;3.50;;;1.73;;
5209;SDS011;2624;48.048;11.706;2024-03-17T01:43:57;2.30;;;1.47;;
5209;SDS011;2624;48.048;11.706;2024-03-17T01:48:59;1.20;;;1.20;;
5209;SDS011;2624;48.048;11.706;2024-03-17T01:54:01;1.30;;;1.23;;
5209;SDS011;2624;48.048;11.706;2024-03-17T01:59:05;1.77;;;1.67;;
5209;SDS011;2624;48.048;11.706;2024-03-17T02:04:09;1.63;;;1.53;;
5209;SDS011;2624;48.048;11.706;2024-03-17T02:09:11;1.40;;;1.40;;
5209;SDS011;2624;48.048;11.706;2024-03-17T02:14:14;1.37;;;1.27;;
5209;SDS011;2624;48.048;11.706;2024-03-17T02:19:17;1.40;;;1.40;;
5209;SDS011;2624;48.048;11.706;2024-03-17T02:24:20;1.53;;;1.40;;
5209;SDS011;2624;48.048;11.706;2024-03-17T02:29:22;1.53;;;1.43;;
5209;SDS011;2624;48.048;11.706;2024-03-17T02:34:24;1.17;;;1.17;;
5209;SDS011;2624;48.048;11.706;2024-03-17T02:39:27;1.60;;;1.50;;
5209;SDS011;2624;48.048;11.706;2024-03-17T02:44:34;1.80;;;1.70;;
5209;SDS011;2624;48.048;11.706;2024-03-17T02:49:36;3.60;;;1.67;;
5209;SDS011;2624;48.048;11.706;2024-03-17T02:54:40;1.07;;;1.07;;
5209;SDS011;2624;48.048;11.706;2024-03-17T02:59:42;1.50;;;1.40;;
5209;SDS011;2624;48.048;11.706;2024-03-17T03:04:45;1.67;;;1.57;;
5209;SDS011;2624;48.048;11.706;2024-03-17T03:09:48;1.50;;;1.40;;
5209;SDS011;2624;48.048;11.706;2024-03-17T03:14:51;1.33;;;1.23;;
5209;SDS011;2624;48.048;11.706;2024-03-17T03:19:53;1.60;;;1.50;;
5209;SDS011;2624;48.048;11.706;2024-03-17T03:24:57;1.60;;;1.50;;
5209;SDS011;2624;48.048;11.706;2024-03-17T03:29:59;2.07;;;1.40;;
5209;SDS011;2624;48.048;11.706;2024-03-17T03:35:01;1.73;;;1.63;;
5209;SDS011;2624;48.048;11.706;2024-03-17T03:40:06;1.63;;;1.53;;
5209;SDS011;2624;48.048;11.706;2024-03-17T03:45:16;1.97;;;1.87;;
5209;SDS011;2624;48.048;11.706;2024-03-17T03:50:19;2.80;;;1.90;;
5209;SDS011;2624;48.048;11.706;2024-03-17T03:55:24;1.50;;;1.23;;
5209;SDS011;2624;48.048;11.706;2024-03-17T04:00:26;1.90;;;1.40;;
5209;SDS011;2624;48.048;11.706;2024-03-17T04:05:31;1.50;;;1.47;;
5209;SDS011;2624;48.048;11.706;2024-03-17T04:10:35;2.87;;;1.27;;
5209;SDS011;2624;48.048;11.706;2024-03-17T04:15:37;1.50;;;1.40;;
5209;SDS011;2624;48.048;11.706;2024-03-17T04:20:40;1.60;;;1.60;;
5209;SDS011;2624;48.048;11.706;2024-03-17T04:25:43;1.07;;;1.00;;
5209;SDS011;2624;48.048;11.706;2024-03-17T04:30:45;1.67;;;1.57;;
5209;SDS011;2624;48.048;11.706;2024-03-17T04:35:47;1.00;;;1.00;;
5209;SDS011;2624;48.048;11.706;2024-03-17T04:40:51;1.40;;;1.30;;
5209;SDS011;2624;48.048;11.706;2024-03-17T04:45:59;1.40;;;1.40;;
5209;SDS011;2624;48.048;11.706;2024-03-17T04:51:04;1.30;;;1.30;;
5209;SDS011;2624;48.048;11.706;2024-03-17T04:56:07;1.13;;;1.13;;
5209;SDS011;2624;48.048;11.706;2024-03-17T05:01:09;1.10;;;1.00;;
5209;SDS011;2624;48.048;11.706;2024-03-17T05:06:13;1.33;;;1.33;;
5209;SDS011;2624;48.048;11.706;2024-03-17T05:11:16;1.67;;;1.57;;
5209;SDS011;2624;48.048;11.706;2024-03-17T05:16:19;0.90;;;0.90;;
5209;SDS011;2624;48.048;11.706;2024-03-17T05:21:22;0.93;;;0.93;;
5209;SDS011;2624;48.048;11.706;2024-03-17T05:26:27;1.30;;;1.20;;
5209;SDS011;2624;48.048;11.706;2024-03-17T05:31:30;1.47;;;1.43;;
5209;SDS011;2624;48.048;11.706;2024-03-17T05:36:32;1.27;;;1.20;;
5209;SDS011;2624;48.048;11.706;2024-03-17T05:41:36;1.47;;;1.20;;
5209;SDS011;2624;48.048;11.706;2024-03-17T05:46:38;4.20;;;1.80;;
5209;SDS011;2624;48.048;11.706;2024-03-17T05:51:40;2.30;;;2.10;;
5209;SDS011;2624;48.048;11.706;2024-03-17T05:56:43;2.07;;;1.97;;
5209;SDS011;2624;48.048;11.706;2024-03-17T06:01:45;2.10;;;1.90;;
5209;SDS011;2624;48.048;11.706;2024-03-17T06:06:47;2.83;;;1.93;;
5209;SDS011;2624;48.048;11.706;2024-03-17T06:11:50;1.80;;;1.70;;
5209;SDS011;2624;48.048;11.706;2024-03-17T06:16:52;2.03;;;1.90;;
5209;SDS011;2624;48.048;11.706;2024-03-17T06:21:54;2.03;;;1.80;;
5209;SDS011;2624;48.048;11.706;2024-03-17T06:26:59;2.57;;;2.37;;
5209;SDS011;2624;48.048;11.706;2024-03-17T06:32:01;2.07;;;1.97;;
5209;SDS011;2624;48.048;11.706;2024-03-17T06:37:03;2.63;;;2.43;;
5209;SDS011;2624;48.048;11.706;2024-03-17T06:42:07;2.10;;;2.00;;
5209;SDS011;2624;48.048;11.706;2024-03-17T06:47:09;4.17;;;2.40;;
5209;SDS011;2624;48.048;11.706;2024-03-17T06:52:11;4.00;;;3.60;;
5209;SDS011;2624;48.048;11.706;2024-03-17T06:57:14;4.10;;;2.90;;
5209;SDS011;2624;48.048;11.706;2024-03-17T07:02:16;3.20;;;2.87;;
5209;SDS011;2624;48.048;11.706;2024-03-17T07:07:19;7.20;;;3.50;;
5209;SDS011;2624;48.048;11.706;2024-03-17T07:12:23;5.60;;;3.80;;
5209;SDS011;2624;48.048;11.706;2024-03-17T07:17:25;4.27;;;3.87;;
5209;SDS011;2624;48.048;11.706;2024-03-17T07:22:27;3.77;;;3.43;;
5209;SDS011;2624;48.048;11.706;2024-03-17T07:27:30;4.57;;;3.70;;
5209;SDS011;2624;48.048;11.706;2024-03-17T07:32:32;6.53;;;3.77;;
5209;SDS011;2624;48.048;11.706;2024-03-17T07:37:34;4.33;;;3.63;;
5209;SDS011;2624;48.048;11.706;2024-03-17T07:42:37;3.33;;;3.07;;
5209;SDS011;2624;48.048;11.706;2024-03-17T07:47:39;4.50;;;3.67;;
5209;SDS011;2624;48.048;11.706;2024-03-17T07:52:41;3.83;;;3.53;;
5209;SDS011;2624;48.048;11.706;2024-03-17T07:57:44;2.80;;;2.60;;
5209;SDS011;2624;48.048;11.706;2024-03-17T08:02:46;2.43;;;2.33;;
5209;SDS011;2624;48.048;11.706;2024-03-17T08:07:49;2.20;;;2.10;;
5209;SDS011;2624;48.048;11.706;2024-03-17T08:12:52;4.63;;;2.47;;
5209;SDS011;2624;48.048;11.706;2024-03-17T08:17:54;2.17;;;1.97;;
5209;SDS011;2624;48.048;11.706;2024-03-17T08:22:56;3.47;;;3.00;;
5209;SDS011;2624;48.048;11.706;2024-03-17T08:27:59;1.90;;;1.80;;
5209;SDS011;2624;48.048;11.706;2024-03-17T08:33:01;1.90;;;1.80;;
5209;SDS011;2624;48.048;11.706;2024-03-17T08:38:03;5.47;;;2.80;;
5209;SDS011;2624;48.048;11.706;2024-03-17T08:43:06;2.70;;;2.50;;
5209;SDS011;2624;48.048;11.706;2024-03-17T08:48:08;2.13;;;2.03;;
5209;SDS011;2624;48.048;11.706;2024-03-17T08:53:11;1.80;;;1.70;;
5209;SDS011;2624;48.048;11.706;2024-03-17T08:58:15;1.60;;;1.50;;
5209;SDS011;2624;48.048;11.706;2024-03-17T09:03:17;1.53;;;1.43;;
5209;SDS011;2624;48.048;11.706;2024-03-17T09:08:20;1.30;;;1.20;;
5209;SDS011;2624;48.048;11.706;2024-03-17T09:13:25;1.73;;;1.43;;
5209;SDS011;2624;48.048;11.706;2024-03-17T09:18:28;1.73;;;1.63;;
5209;SDS011;2624;48.048;11.706;2024-03-17T09:23:30;1.50;;;1.00;;
5209;SDS011;2624;48.048;11.706;2024-03-17T09:28:35;1.43;;;1.37;;
5209;SDS011;2624;48.048;11.706;2024-03-17T09:33:37;1.07;;;1.07;;
5209;SDS011;2624;48.048;11.706;2024-03-17T09:38:39;2.70;;;1.03;;
5209;SDS011;2624;48.048;11.706;2024-03-17T09:43:43;1.40;;;1.27;;
5209;SDS011;2624;48.048;11.706;2024-03-17T09:48:46;1.17;;;1.10;;
5209;SDS011;2624;48.048;11.706;2024-03-17T09:53:48;1.00;;;1.00;;
5209;SDS011;2624;48.048;11.706;2024-03-17T09:58:52;1.80;;;1.27;;
5209;SDS011;2624;48.048;11.706;2024-03-17T10:03:54;1.70;;;1.10;;
5209;SDS011;2624;48.048;11.706;2024-03-17T10:08:56;0.87;;;0.70;;
5209;SDS011;2624;48.048;11.706;2024-03-17T10:14:03;0.87;;;0.70;;
5209;SDS011;2624;48.048;11.706;2024-03-17T10:19:06;1.50;;;0.80;;
5209;SDS011;2624;48.048;11.706;2024-03-17T10:24:10;3.33;;;1.27;;
5209;SDS011;2624;48.048;11.706;2024-03-17T10:29:21;2.40;;;0.80;;
5209;SDS011;2624;48.048;11.706;2024-03-17T10:34:25;2.30;;;0.90;;
5209;SDS011;2624;48.048;11.706;2024-03-17T10:39:29;0.70;;;0.70;;
5209;SDS011;2624;48.048;11.706;2024-03-17T10:44:32;1.37;;;0.90;;
5209;SDS011;2624;48.048;11.706;2024-03-17T10:49:37;5.73;;;0.77;;
5209;SDS011;2624;48.048;11.706;2024-03-17T10:54:39;1.07;;;0.80;;
5209;SDS011;2624;48.048;11.706;2024-03-17T10:59:49;1.47;;;0.57;;
5209;SDS011;2624;48.048;11.706;2024-03-17T11:04:52;0.57;;;0.57;;
5209;SDS011;2624;48.048;11.706;2024-03-17T11:09:56;0.77;;;0.77;;
5209;SDS011;2624;48.048;11.706;2024-03-17T11:20:41;2.27;;;0.73;;
5209;SDS011;2624;48.048;11.706;2024-03-17T11:25:48;1.80;;;0.60;;
5209;SDS011;2624;48.048;11.706;2024-03-17T11:30:55;0.90;;;0.60;;
5209;SDS011;2624;48.048;11.706;2024-03-17T11:41:37;1.70;;;0.67;;
5209;SDS011;2624;48.048;11.706;2024-03-17T11:46:42;3.90;;;0.63;;
5209;SDS011;2624;48.048;11.706;2024-03-17T11:51:44;0.60;;;0.60;;
5209;SDS011;2624;48.048;11.706;2024-03-17T11:56:48;0.40;;;0.40;;
5209;SDS011;2624;48.048;11.706;2024-03-17T12:01:52;0.93;;;0.83;;
5209;SDS011;2624;48.048;11.706;2024-03-17T12:06:54;2.90;;;0.70;;
5209;SDS011;2624;48.048;11.706;2024-03-17T12:11:58;0.60;;;0.60;;
5209;SDS011;2624;48.048;11.706;2024-03-17T12:17:02;0.70;;;0.70;;
5209;SDS011;2624;48.048;11.706;2024-03-17T12:22:06;0.80;;;0.80;;
5209;SDS011;2624;48.048;11.706;2024-03-17T12:27:08;0.70;;;0.70;;
5209;SDS011;2624;48.048;11.706;2024-03-17T12:32:20;0.50;;;0.50;;
5209;SDS011;2624;48.048;11.706;2024-03-17T12:37:23;0.80;;;0.80;;
5209;SDS011;2624;48.048;11.706;2024-03-17T12:42:28;0.73;;;0.60;;
5209;SDS011;2624;48.048;11.706;2024-03-17T12:47:33;5.60;;;0.60;;
5209;SDS011;2624;48.048;11.706;2024-03-17T12:52:35;1.73;;;0.83;;
5209;SDS011;2624;48.048;11.706;2024-03-17T12:57:38;2.80;;;0.60;;
5209;SDS011;2624;48.048;11.706;2024-03-17T13:02:58;0.90;;;0.80;;
5209;SDS011;2624;48.048;11.706;2024-03-17T13:08:01;1.73;;;0.60;;
5209;SDS011;2624;48.048;11.706;2024-03-17T13:13:03;0.50;;;0.50;;
5209;SDS011;2624;48.048;11.706;2024-03-17T13:18:08;1.03;;;0.90;;
5209;SDS011;2624;48.048;11.706;2024-03-17T13:23:10;0.50;;;0.50;;
5209;SDS011;2624;48.048;11.706;2024-03-17T13:28:13;0.50;;;0.50;;
5209;SDS011;2624;48.048;11.706;2024-03-17T13:33:17;1.23;;;0.60;;
5209;SDS011;2624;48.048;11.706;2024-03-17T13:38:18;1.73;;;0.60;;
5209;SDS011;2624;48.048;11.706;2024-03-17T13:43:20;0.63;;;0.60;;
5209;SDS011;2624;48.048;11.706;2024-03-17T13:48:24;2.13;;;0.60;;
5209;SDS011;2624;48.048;11.706;2024-03-17T13:53:26;0.53;;;0.53;;
5209;SDS011;2624;48.048;11.706;2024-03-17T13:58:28;2.00;;;0.70;;
5209;SDS011;2624;48.048;11.706;2024-03-17T14:03:31;3.10;;;0.63;;
5209;SDS011;2624;48.048;11.706;2024-03-17T14:08:33;0.50;;;0.50;;
5209;SDS011;2624;48.048;11.706;2024-03-17T14:13:35;3.80;;;0.63;;
5209;SDS011;2624;48.048;11.706;2024-03-17T14:18:38;1.00;;;1.00;;
5209;SDS011;2624;48.048;11.706;2024-03-17T14:23:40;1.07;;;0.97;;
5209;SDS011;2624;48.048;11.706;2024-03-17T14:28:43;14.17;;;1.70;;
5209;SDS011;2624;48.048;11.706;2024-03-17T14:33:47;4.63;;;0.97;;
5209;SDS011;2624;48.048;11.706;2024-03-17T14:38:49;0.50;;;0.50;;
5209;SDS011;2624;48.048;11.706;2024-03-17T14:43:52;1.70;;;1.00;;
5209;SDS011;2624;48.048;11.706;2024-03-17T14:48:55;3.97;;;1.13;;
5209;SDS011;2624;48.048;11.706;2024-03-17T14:53:57;0.60;;;0.60;;
5209;SDS011;2624;48.048;11.706;2024-03-17T14:59:00;0.93;;;0.93;;
5209;SDS011;2624;48.048;11.706;2024-03-17T15:04:03;2.77;;;1.43;;
5209;SDS011;2624;48.048;11.706;2024-03-17T15:09:05;3.67;;;0.93;;
5209;SDS011;2624;48.048;11.706;2024-03-17T15:14:08;1.60;;;0.83;;
5209;SDS011;2624;48.048;11.706;2024-03-17T15:19:12;2.03;;;1.13;;
5209;SDS011;2624;48.048;11.706;2024-03-17T15:24:14;1.10;;;0.80;;
5209;SDS011;2624;48.048;11.706;2024-03-17T15:29:16;0.70;;;0.70;;
5209;SDS011;2624;48.048;11.706;2024-03-17T15:34:20;4.53;;;0.83;;
5209;SDS011;2624;48.048;11.706;2024-03-17T15:39:21;1.23;;;0.90;;
5209;SDS011;2624;48.048;11.706;2024-03-17T15:44:23;2.93;;;0.90;;
5209;SDS011;2624;48.048;11.706;2024-03-17T15:49:27;0.87;;;0.70;;
5209;SDS011;2624;48.048;11.706;2024-03-17T15:54:28;2.83;;;0.73;;
5209;SDS011;2624;48.048;11.706;2024-03-17T15:59:30;3.80;;;1.23;;
5209;SDS011;2624;48.048;11.706;2024-03-17T16:04:36;1.43;;;0.80;;
5209;SDS011;2624;48.048;11.706;2024-03-17T16:09:38;3.87;;;1.40;;
5209;SDS011;2624;48.048;11.706;2024-03-17T16:14:40;3.27;;;1.03;;
5209;SDS011;2624;48.048;11.706;2024-03-17T16:19:45;1.67;;;1.47;;
5209;SDS011;2624;48.048;11.706;2024-03-17T16:24:48;1.97;;;1.00;;
5209;SDS011;2624;48.048;11.706;2024-03-17T16:29:50;1.13;;;1.13;;
5209;SDS011;2624;48.048;11.706;2024-03-17T16:34:54;0.63;;;0.60;;
5209;SDS011;2624;48.048;11.706;2024-03-17T16:39:55;4.20;;;0.80;;
5209;SDS011;2624;48.048;11.706;2024-03-17T16:44:59;3.33;;;1.10;;
5209;SDS011;2624;48.048;11.706;2024-03-17T16:50:07;4.70;;;0.90;;
5209;SDS011;2624;48.048;11.706;2024-03-17T16:55:11;1.37;;;0.90;;
5209;SDS011;2624;48.048;11.706;2024-03-17T17:00:15;0.97;;;0.87;;
5209;SDS011;2624;48.048;11.706;2024-03-17T17:05:19;1.53;;;0.93;;
5209;SDS011;2624;48.048;11.706;2024-03-17T17:10:21;2.83;;;1.07;;
5209;SDS011;2624;48.048;11.706;2024-03-17T17:15:23;5.50;;;0.90;;
5209;SDS011;2624;48.048;11.706;2024-03-17T17:20:26;1.50;;;1.40;;
5209;SDS011;2624;48.048;11.706;2024-03-17T17:25:33;16.93;;;5.80;;
5209;SDS011;2624;48.048;11.706;2024-03-17T17:30:35;7.30;;;3.40;;
5209;SDS011;2624;48.048;11.706;2024-03-17T17:35:39;2.83;;;2.00;;
5209;SDS011;2624;48.048;11.706;2024-03-17T17:40:41;1.23;;;0.97;;
5209;SDS011;2624;48.048;11.706;2024-03-17T17:45:43;0.80;;;0.60;;
5209;SDS011;2624;48.048;11.706;2024-03-17T17:50:46;0.73;;;0.70;;
5209;SDS011;2624;48.048;11.706;2024-03-17T17:55:48;0.83;;;0.83;;
5209;SDS011;2624;48.048;11.706;2024-03-17T18:00:55;4.80;;;0.70;;
5209;SDS011;2624;48.048;11.706;2024-03-17T18:05:59;2.10;;;1.00;;
5209;SDS011;2624;48.048;11.706;2024-03-17T18:11:01;0.70;;;0.70;;
5209;SDS011;2624;48.048;11.706;2024-03-17T18:16:05;3.47;;;1.73;;
5209;SDS011;2624;48.048;11.706;2024-03-17T18:21:09;1.20;;;0.67;;
5209;SDS011;2624;48.048;11.706;2024-03-17T18:26:12;1.03;;;0.80;;
5209;SDS011;2624;48.048;11.706;2024-03-17T18:31:14;1.70;;;0.90;;
5209;SDS011;2624;48.048;11.706;2024-03-17T18:36:18;11.90;;;1.23;;
5209;SDS011;2624;48.048;11.706;2024-03-17T18:41:20;4.00;;;1.30;;
5209;SDS011;2624;48.048;11.706;2024-03-17T18:46:21;1.10;;;1.07;;
5209;SDS011;2624;48.048;11.706;2024-03-17T18:51:25;1.00;;;0.80;;
5209;SDS011;2624;48.048;11.706;2024-03-17T18:56:28;1.30;;;1.13;;
5209;SDS011;2624;48.048;11.706;2024-03-17T19:01:30;1.60;;;1.50;;
5209;SDS011;2624;48.048;11.706;2024-03-17T19:06:33;2.90;;;1.57;;
5209;SDS011;2624;48.048;11.706;2024-03-17T19:11:35;2.60;;;1.70;;
5209;SDS011;2624;48.048;11.706;2024-03-17T19:16:38;2.40;;;2.10;;
5209;SDS011;2624;48.048;11.706;2024-03-17T19:21:41;4.73;;;2.13;;
5209;SDS011;2624;48.048;11.706;2024-03-17T19:26:48;2.30;;;1.80;;
5209;SDS011;2624;48.048;11.706;2024-03-17T19:31:50;1.50;;;1.37;;
5209;SDS011;2624;48.048;11.706;2024-03-17T19:36:54;1.53;;;1.40;;
5209;SDS011;2624;48.048;11.706;2024-03-17T19:41:56;2.10;;;1.97;;
5209;SDS011;2624;48.048;11.706;2024-03-17T19:47:00;2.03;;;1.80;;
5209;SDS011;2624;48.048;11.706;2024-03-17T19:52:04;10.30;;;4.77;;
5209;SDS011;2624;48.048;11.706;2024-03-17T19:57:06;2.37;;;2.17;;
5209;SDS011;2624;48.048;11.706;2024-03-17T20:02:08;6.93;;;1.87;;
5209;SDS011;2624;48.048;11.706;2024-03-17T20:07:14;5.17;;;2.37;;
5209;SDS011;2624;48.048;11.706;2024-03-17T20:12:16;10.20;;;4.27;;
5209;SDS011;2624;48.048;11.706;2024-03-17T20:17:18;9.60;;;4.30;;
5209;SDS011;2624;48.048;11.706;2024-03-17T20:22:21;8.00;;;2.90;;
5209;SDS011;2624;48.048;11.706;2024-03-17T20:27:24;4.50;;;2.70;;
5209;SDS011;2624;48.048;11.706;2024-03-17T20:32:26;3.63;;;2.10;;
5209;SDS011;2624;48.048;11.706;2024-03-17T20:37:29;1.70;;;1.60;;
5209;SDS011;2624;48.048;11.706;2024-03-17T20:42:31;1.70;;;1.63;;
5209;SDS011;2624;48.048;11.706;2024-03-17T20:47:33;2.10;;;2.00;;
5209;SDS011;2624;48.048;11.706;2024-03-17T20:52:36;5.73;;;2.50;;
5209;SDS011;2624;48.048;11.706;2024-03-17T20:57:39;1.60;;;1.50;;
5209;SDS011;2624;48.048;11.706;2024-03-17T21:02:41;5.90;;;2.20;;
5209;SDS011;2624;48.048;11.706;2024-03-17T21:07:44;9.27;;;1.90;;
5209;SDS011;2624;48.048;11.706;2024-03-17T21:12:46;3.07;;;1.50;;
5209;SDS011;2624;48.048;11.706;2024-03-17T21:17:50;8.30;;;1.70;;
5209;SDS011;2624;48.048;11.706;2024-03-17T21:22:54;1.70;;;1.60;;
5209;SDS011;2624;48.048;11.706;2024-03-17T21:27:58;1.57;;;1.40;;
5209;SDS011;2624;48.048;11.706;2024-03-17T21:33:02;2.13;;;1.57;;
5209;SDS011;2624;48.048;11.706;2024-03-17T21:38:06;3.17;;;1.90;;
5209;SDS011;2624;48.048;11.706;2024-03-17T21:43:08;1.90;;;1.50;;
5209;SDS011;2624;48.048;11.706;2024-03-17T21:48:10;15.03;;;1.80;;
5209;SDS011;2624;48.048;11.706;2024-03-17T21:53:14;2.33;;;1.87;;
5209;SDS011;2624;48.048;11.706;2024-03-17T21:58:15;2.07;;;1.87;;
5209;SDS011;2624;48.048;11.706;2024-03-17T22:03:17;2.53;;;2.33;;
5209;SDS011;2624;48.048;11.706;2024-03-17T22:08:22;4.00;;;2.20;;
5209;SDS011;2624;48.048;11.706;2024-03-17T22:13:24;3.47;;;3.17;;
5209;SDS011;2624;48.048;11.706;2024-03-17T22:18:27;12.20;;;5.97;;
5209;SDS011;2624;48.048;11.706;2024-03-17T22:23:31;5.20;;;3.87;;
5209;SDS011;2624;48.048;11.706;2024-03-17T22:28:33;1.80;;;1.70;;
5209;SDS011;2624;48.048;11.706;2024-03-17T22:33:35;1.60;;;1.40;;
5209;SDS011;2624;48.048;11.706;2024-03-17T22:38:39;11.50;;;1.40;;
5209;SDS011;2624;48.048;11.706;2024-03-17T22:43:41;5.97;;;1.67;;
5209;SDS011;2624;48.048;11.706;2024-03-17T22:48:43;6.10;;;1.60;;
5209;SDS011;2624;48.048;11.706;2024-03-17T22:53:47;3.47;;;1.60;;
5209;SDS011;2624;48.048;11.706;2024-03-17T22:58:49;1.40;;;1.30;;
5209;SDS011;2624;48.048;11.706;2024-03-17T23:03:52;2.20;;;0.80;;
5209;SDS011;2624;48.048;11.706;2024-03-17T23:08:55;2.93;;;1.00;;
5209;SDS011;2624;48.048;11.706;2024-03-17T23:13:57;1.17;;;1.17;;
5209;SDS011;2624;48.048;11.706;2024-03-17T23:18:59;5.10;;;1.10;;
5209;SDS011;2624;48.048;11.706;2024-03-17T23:24:03;5.50;;;1.07;;
5209;SDS011;2624;48.048;11.706;2024-03-17T23:29:06;3.03;;;0.80;;
5209;SDS011;2624;48.048;11.706;2024-03-17T23:34:08;7.50;;;1.17;;
5209;SDS011;2624;48.048;11.706;2024-03-17T23:39:11;3.10;;;0.90;;
5209;SDS011;2624;48.048;11.706;2024-03-17T23:44:13;5.23;;;1.33;;
5209;SDS011;2624;48.048;11.706;2024-03-17T23:49:15;4.43;;;1.30;;
5209;SDS011;2624;48.048;11.706;2024-03-17T23:54:19;1.10;;;0.93;;
5209;SDS011;2624;48.048;11.706;2024-03-17T23:59:21;0.80;;;0.80;;
